createdAt,value
2019-05-05T00:01:30.067Z,4.40
2019-05-05T00:04:08.482Z,4.38
2019-05-05T00:06:41.475Z,4.45
2019-05-05T00:09:14.743Z,4.46
2019-05-05T00:12:01.569Z,4.47
2019-05-05T00:14:36.829Z,4.44
2019-05-05T00:17:26.147Z,4.34
2019-05-05T00:19:58.994Z,4.32
2019-05-05T00:22:32.066Z,4.30
2019-05-05T00:25:06.106Z,4.25
2019-05-05T00:27:38.788Z,4.28
2019-05-05T00:30:11.643Z,4.28
2019-05-05T00:32:44.347Z,4.26
2019-05-05T00:35:18.210Z,4.27
2019-05-05T00:37:50.993Z,4.29
2019-05-05T00:40:24.785Z,4.30
2019-05-05T00:42:57.789Z,4.29
2019-05-05T00:45:32.006Z,4.31
2019-05-05T00:48:12.564Z,4.32
2019-05-05T00:50:45.344Z,4.38
2019-05-05T00:53:18.130Z,4.37
2019-05-05T00:55:51.113Z,4.25
2019-05-05T00:58:24.779Z,4.27
2019-05-05T01:01:15.008Z,4.23
2019-05-05T01:03:47.790Z,4.18
2019-05-05T01:06:25.584Z,4.12
2019-05-05T01:08:58.775Z,4.03
2019-05-05T01:11:31.561Z,4.01
2019-05-05T01:14:06.390Z,3.98
2019-05-05T01:16:39.479Z,3.89
2019-05-05T01:19:14.902Z,3.80
2019-05-05T01:21:47.702Z,3.80
2019-05-05T01:24:21.103Z,3.81
2019-05-05T01:26:55.150Z,3.76
2019-05-05T01:29:28.913Z,3.69
2019-05-05T01:32:05.055Z,3.65
2019-05-05T01:34:45.742Z,3.61
2019-05-05T01:37:22.824Z,3.63
2019-05-05T01:39:55.499Z,3.58
2019-05-05T01:42:28.285Z,3.62
2019-05-05T01:45:04.546Z,3.57
2019-05-05T01:47:37.436Z,3.53
2019-05-05T01:50:18.412Z,3.50
2019-05-05T01:52:45.149Z,3.46
2019-05-05T01:55:18.339Z,3.37
2019-05-05T01:57:54.224Z,3.30
2019-05-05T02:00:26.967Z,3.27
2019-05-05T02:03:00.472Z,3.17
2019-05-05T02:05:34.832Z,3.10
2019-05-05T02:08:07.978Z,3.05
2019-05-05T02:10:40.887Z,3.01
2019-05-05T02:13:16.050Z,2.93
2019-05-05T02:15:48.680Z,2.88
2019-05-05T02:18:21.459Z,2.84
2019-05-05T02:21:09.090Z,2.86
2019-05-05T02:23:42.184Z,2.86
2019-05-05T02:26:15.403Z,2.78
2019-05-05T02:29:04.905Z,2.72
2019-05-05T02:31:56.566Z,2.65
2019-05-05T02:34:31.008Z,2.59
2019-05-05T02:37:05.415Z,2.53
2019-05-05T02:39:45.064Z,2.52
2019-05-05T02:42:14.619Z,2.53
2019-05-05T02:44:49.585Z,2.51
2019-05-05T02:47:45.715Z,2.54
2019-05-05T02:50:19.539Z,2.55
2019-05-05T02:52:53.587Z,2.63
2019-05-05T02:55:27.033Z,2.68
2019-05-05T02:58:00.634Z,2.66
2019-05-05T03:00:50.918Z,2.64
2019-05-05T03:03:24.211Z,2.58
2019-05-05T03:05:57.508Z,2.51
2019-05-05T03:08:33.507Z,2.42
2019-05-05T03:11:07.579Z,2.34
2019-05-05T03:13:44.239Z,2.33
2019-05-05T03:16:23.874Z,2.30
2019-05-05T03:18:57.703Z,2.22
2019-05-05T03:21:30.685Z,2.22
2019-05-05T03:24:05.105Z,2.19
2019-05-05T03:26:38.500Z,2.23
2019-05-05T03:29:13.831Z,2.16
2019-05-05T03:31:47.142Z,2.11
2019-05-05T03:34:23.813Z,2.11
2019-05-05T03:36:56.795Z,2.05
2019-05-05T03:39:34.021Z,2.04
2019-05-05T03:42:13.848Z,1.96
2019-05-05T03:44:48.857Z,1.99
2019-05-05T03:47:24.710Z,2.02
2019-05-05T03:49:58.519Z,2.06
2019-05-05T03:52:34.627Z,2.07
2019-05-05T03:55:09.319Z,2.09
2019-05-05T03:57:44.469Z,2.12
2019-05-05T04:00:25.000Z,2.08
2019-05-05T04:02:59.625Z,2.13
2019-05-05T04:05:34.167Z,2.16
2019-05-05T04:08:08.060Z,2.13
2019-05-05T04:10:43.940Z,2.20
2019-05-05T04:13:18.124Z,2.27
2019-05-05T04:16:08.826Z,2.31
2019-05-05T04:18:43.649Z,2.38
2019-05-05T04:21:29.909Z,2.37
2019-05-05T04:23:53.382Z,2.37
2019-05-05T04:26:25.697Z,2.43
2019-05-05T04:28:58.680Z,2.42
2019-05-05T04:31:31.453Z,2.45
2019-05-05T04:34:04.307Z,2.48
2019-05-05T04:36:37.117Z,2.51
2019-05-05T04:39:09.902Z,2.52
2019-05-05T04:41:44.055Z,2.52
2019-05-05T04:44:18.033Z,2.54
2019-05-05T04:46:54.604Z,2.60
2019-05-05T04:49:27.172Z,2.65
2019-05-05T04:52:16.953Z,2.68
2019-05-05T04:54:55.471Z,2.72
2019-05-05T04:57:27.533Z,2.74
2019-05-05T05:00:01.855Z,2.87
2019-05-05T05:02:53.893Z,3.01
2019-05-05T05:05:29.633Z,3.14
2019-05-05T05:08:03.715Z,3.24
2019-05-05T05:10:37.860Z,3.29
2019-05-05T05:13:10.537Z,3.38
2019-05-05T05:15:44.654Z,3.45
2019-05-05T05:18:18.209Z,3.57
2019-05-05T05:20:51.034Z,3.66
2019-05-05T05:23:24.674Z,3.82
2019-05-05T05:25:57.930Z,4.04
2019-05-05T05:28:30.709Z,4.17
2019-05-05T05:31:03.911Z,4.37
2019-05-05T05:33:37.091Z,4.45
2019-05-05T05:36:10.898Z,4.62
2019-05-05T05:38:45.212Z,4.57
2019-05-05T05:41:19.633Z,4.66
2019-05-05T05:43:54.216Z,4.78
2019-05-05T05:46:28.675Z,4.85
2019-05-05T05:49:01.046Z,4.90
2019-05-05T05:51:34.254Z,5.13
2019-05-05T05:54:07.023Z,5.23
2019-05-05T05:56:40.109Z,5.40
2019-05-05T05:59:14.107Z,5.54
2019-05-05T06:01:47.005Z,5.50
2019-05-05T06:04:19.786Z,5.81
2019-05-05T06:06:54.378Z,5.94
2019-05-05T06:09:27.097Z,5.92
2019-05-05T06:11:59.880Z,6.10
2019-05-05T06:14:34.072Z,6.16
2019-05-05T06:17:07.031Z,6.15
2019-05-05T06:19:39.653Z,6.29
2019-05-05T06:22:15.160Z,6.38
2019-05-05T06:24:46.602Z,6.68
2019-05-05T06:27:19.352Z,6.79
2019-05-05T06:29:54.150Z,6.90
2019-05-05T06:32:26.426Z,7.03
2019-05-05T06:34:59.042Z,7.03
2019-05-05T06:37:31.617Z,7.09
2019-05-05T06:40:06.814Z,7.35
2019-05-05T06:42:57.108Z,7.56
2019-05-05T06:45:34.287Z,7.94
2019-05-05T06:48:07.975Z,8.11
2019-05-05T06:50:41.275Z,8.09
2019-05-05T06:53:13.957Z,8.38
2019-05-05T06:55:46.636Z,8.39
2019-05-05T06:58:19.313Z,7.83
2019-05-05T07:00:54.155Z,7.71
2019-05-05T07:03:26.268Z,7.62
2019-05-05T07:05:59.001Z,8.06
2019-05-05T07:08:34.758Z,8.59
2019-05-05T07:11:09.505Z,9.11
2019-05-05T07:13:44.312Z,9.29
2019-05-05T07:16:17.193Z,9.65
2019-05-05T07:18:49.861Z,9.72
2019-05-05T07:21:24.546Z,8.96
2019-05-05T07:23:57.817Z,8.68
2019-05-05T07:26:30.571Z,9.39
2019-05-05T07:29:04.531Z,9.86
2019-05-05T07:31:39.073Z,9.85
2019-05-05T07:34:13.672Z,9.34
2019-05-05T07:36:48.046Z,9.48
2019-05-05T07:39:20.724Z,9.00
2019-05-05T07:41:54.321Z,9.29
2019-05-05T07:44:29.767Z,10.32
2019-05-05T07:47:03.526Z,10.36
2019-05-05T07:49:35.740Z,9.91
2019-05-05T07:52:08.436Z,9.61
2019-05-05T07:54:41.034Z,10.44
2019-05-05T07:57:14.651Z,10.27
2019-05-05T07:59:47.486Z,10.26
2019-05-05T08:02:23.513Z,10.31
2019-05-05T08:04:57.435Z,10.78
2019-05-05T08:07:31.560Z,11.21
2019-05-05T08:10:05.563Z,11.03
2019-05-05T08:12:38.847Z,11.25
2019-05-05T08:15:11.747Z,11.04
2019-05-05T08:17:53.928Z,11.02
2019-05-05T08:20:31.327Z,10.99
2019-05-05T08:23:04.639Z,11.50
2019-05-05T08:25:40.885Z,12.05
2019-05-05T08:28:31.396Z,11.65
2019-05-05T08:31:08.261Z,11.48
2019-05-05T08:33:40.951Z,11.35
2019-05-05T08:36:14.807Z,12.36
2019-05-05T08:38:47.544Z,12.15
2019-05-05T08:41:20.204Z,12.50
2019-05-05T08:43:54.304Z,12.74
2019-05-05T08:46:27.108Z,12.67
2019-05-05T08:48:59.890Z,11.80
2019-05-05T08:51:33.921Z,11.64
2019-05-05T08:54:07.187Z,11.71
2019-05-05T08:56:39.866Z,11.79
2019-05-05T08:59:14.312Z,11.38
2019-05-05T09:01:47.780Z,12.21
2019-05-05T09:04:20.405Z,11.73
2019-05-05T09:06:54.313Z,12.25
2019-05-05T09:09:27.162Z,12.14
2019-05-05T09:11:59.841Z,12.81
2019-05-05T09:14:34.414Z,12.90
2019-05-05T09:17:06.874Z,13.28
2019-05-05T09:19:40.631Z,13.33
2019-05-05T09:22:14.024Z,12.78
2019-05-05T09:24:57.568Z,11.73
2019-05-05T09:27:34.395Z,11.67
2019-05-05T09:30:09.905Z,12.03
2019-05-05T09:32:43.921Z,12.39
2019-05-05T09:35:16.772Z,12.54
2019-05-05T09:37:49.771Z,12.00
2019-05-05T09:40:26.845Z,12.25
2019-05-05T09:42:59.533Z,12.79
2019-05-05T09:45:33.659Z,13.11
2019-05-05T09:48:06.781Z,13.18
2019-05-05T09:50:39.402Z,13.05
2019-05-05T09:53:14.530Z,12.33
2019-05-05T09:55:47.425Z,12.90
2019-05-05T09:58:20.111Z,12.90
2019-05-05T10:00:54.589Z,12.28
2019-05-05T10:03:27.755Z,12.03
2019-05-05T10:06:00.394Z,12.12
2019-05-05T10:08:34.094Z,12.51
2019-05-05T10:11:06.889Z,12.71
2019-05-05T10:13:39.505Z,13.07
2019-05-05T10:16:13.850Z,13.07
2019-05-05T10:18:46.449Z,12.70
2019-05-05T10:21:19.130Z,12.74
2019-05-05T10:23:54.040Z,13.25
2019-05-05T10:26:27.045Z,13.22
2019-05-05T10:29:01.244Z,13.17
2019-05-05T10:31:34.661Z,13.34
2019-05-05T10:34:09.181Z,13.81
2019-05-05T10:36:41.864Z,13.30
2019-05-05T10:39:33.467Z,13.17
2019-05-05T10:42:06.466Z,13.10
2019-05-05T10:44:39.764Z,13.75
2019-05-05T10:47:13.747Z,13.62
2019-05-05T10:49:46.668Z,13.72
2019-05-05T10:52:19.348Z,13.58
2019-05-05T10:54:54.817Z,14.00
2019-05-05T10:57:28.530Z,13.70
2019-05-05T11:00:10.123Z,14.00
2019-05-05T11:02:35.581Z,14.35
2019-05-05T11:05:11.130Z,14.63
2019-05-05T11:07:44.217Z,14.53
2019-05-05T11:10:21.411Z,13.84
2019-05-05T11:12:54.082Z,13.58
2019-05-05T11:15:26.766Z,12.98
2019-05-05T11:17:59.543Z,13.21
2019-05-05T11:20:34.009Z,13.02
2019-05-05T11:23:06.854Z,13.71
2019-05-05T11:25:39.469Z,13.48
2019-05-05T11:28:12.318Z,14.04
2019-05-05T11:30:48.275Z,14.23
2019-05-05T11:33:25.456Z,13.78
2019-05-05T11:36:15.441Z,14.15
2019-05-05T11:38:48.314Z,13.76
2019-05-05T11:41:21.604Z,13.60
2019-05-05T11:43:55.008Z,14.02
2019-05-05T11:46:28.298Z,14.51
2019-05-05T11:49:00.978Z,14.58
2019-05-05T11:51:34.336Z,14.27
2019-05-05T11:54:07.062Z,14.53
2019-05-05T11:56:39.756Z,14.42
2019-05-05T11:59:14.334Z,14.09
2019-05-05T12:01:47.659Z,14.35
2019-05-05T12:04:20.636Z,14.55
2019-05-05T12:06:54.559Z,15.01
2019-05-05T12:09:30.100Z,14.46
2019-05-05T12:12:03.792Z,14.15
2019-05-05T12:14:36.689Z,14.16
2019-05-05T12:17:09.369Z,14.45
2019-05-05T12:19:43.492Z,15.36
2019-05-05T12:22:16.573Z,15.39
2019-05-05T12:24:50.481Z,15.22
2019-05-05T12:27:24.720Z,14.97
2019-05-05T12:29:57.668Z,14.38
2019-05-05T12:32:31.395Z,13.88
2019-05-05T12:35:04.300Z,13.51
2019-05-05T12:37:38.374Z,13.98
2019-05-05T12:40:11.145Z,14.99
2019-05-05T12:42:44.448Z,16.80
2019-05-05T12:45:20.184Z,17.28
2019-05-05T12:48:10.700Z,17.47
2019-05-05T12:50:44.259Z,17.87
2019-05-05T12:53:17.185Z,17.45
2019-05-05T12:55:51.078Z,17.38
2019-05-05T12:58:23.774Z,16.31
2019-05-05T13:01:14.435Z,15.70
2019-05-05T13:03:47.250Z,14.92
2019-05-05T13:06:19.921Z,14.80
2019-05-05T13:08:52.722Z,14.35
2019-05-05T13:11:25.493Z,14.65
2019-05-05T13:13:58.179Z,15.67
2019-05-05T13:16:31.824Z,16.82
2019-05-05T13:19:06.038Z,18.06
2019-05-05T13:21:44.271Z,18.56
2019-05-05T13:24:16.763Z,17.97
2019-05-05T13:27:10.699Z,18.73
2019-05-05T13:29:44.266Z,18.10
2019-05-05T13:32:16.774Z,16.88
2019-05-05T13:34:49.409Z,15.98
2019-05-05T13:37:24.454Z,17.66
2019-05-05T13:39:57.122Z,18.56
2019-05-05T13:42:30.503Z,18.27
2019-05-05T13:45:03.935Z,17.77
2019-05-05T13:47:36.713Z,16.42
2019-05-05T13:50:14.134Z,15.57
2019-05-05T13:52:46.760Z,15.67
2019-05-05T13:55:19.839Z,15.44
2019-05-05T13:57:52.518Z,15.47
2019-05-05T14:00:25.671Z,15.39
2019-05-05T14:02:58.593Z,15.56
2019-05-05T14:05:31.290Z,15.18
2019-05-05T14:08:04.255Z,15.68
2019-05-05T14:10:37.861Z,15.18
2019-05-05T14:13:10.754Z,15.17
2019-05-05T14:15:44.112Z,17.21
2019-05-05T14:18:18.662Z,18.38
2019-05-05T14:20:51.348Z,19.07
2019-05-05T14:23:24.636Z,18.68
2019-05-05T14:25:57.322Z,17.45
2019-05-05T14:28:29.999Z,17.00
2019-05-05T14:31:16.294Z,16.06
2019-05-05T14:33:50.623Z,15.63
2019-05-05T14:36:25.859Z,15.37
2019-05-05T14:38:59.404Z,14.87
2019-05-05T14:41:32.178Z,14.40
2019-05-05T14:44:04.908Z,14.03
2019-05-05T14:46:37.700Z,13.81
2019-05-05T14:49:10.995Z,13.75
2019-05-05T14:51:44.679Z,13.83
2019-05-05T14:54:17.988Z,13.74
2019-05-05T14:56:51.469Z,13.37
2019-05-05T14:59:24.771Z,13.44
2019-05-05T15:01:58.058Z,13.35
2019-05-05T15:04:34.482Z,13.37
2019-05-05T15:07:09.057Z,13.40
2019-05-05T15:09:44.083Z,13.30
2019-05-05T15:12:30.492Z,13.18
2019-05-05T15:15:03.958Z,13.24
2019-05-05T15:17:38.730Z,13.18
2019-05-05T15:20:13.959Z,13.13
2019-05-05T15:22:46.943Z,12.69
2019-05-05T15:25:20.901Z,12.59
2019-05-05T15:27:54.214Z,12.50
2019-05-05T15:30:27.331Z,13.82
2019-05-05T15:33:00.233Z,12.95
2019-05-05T15:35:33.962Z,12.88
2019-05-05T15:38:06.973Z,12.70
2019-05-05T15:40:39.653Z,12.47
2019-05-05T15:43:14.169Z,12.41
2019-05-05T15:45:48.960Z,13.89
2019-05-05T15:48:21.923Z,13.69
2019-05-05T15:50:54.709Z,13.18
2019-05-05T15:53:27.387Z,12.94
2019-05-05T15:56:00.839Z,12.86
2019-05-05T15:58:34.209Z,12.72
2019-05-05T16:01:07.324Z,12.42
2019-05-05T16:03:40.048Z,12.15
2019-05-05T16:06:14.272Z,12.04
2019-05-05T16:08:47.157Z,12.00
2019-05-05T16:11:20.807Z,11.97
2019-05-05T16:13:54.474Z,11.95
2019-05-05T16:16:36.734Z,11.83
2019-05-05T16:19:28.093Z,11.81
2019-05-05T16:22:03.904Z,11.73
2019-05-05T16:24:38.563Z,11.83
2019-05-05T16:27:21.723Z,12.72
2019-05-05T16:29:50.570Z,14.75
2019-05-05T16:32:24.852Z,17.29
2019-05-05T16:34:59.447Z,19.00
2019-05-05T16:37:34.598Z,19.34
2019-05-05T16:40:10.610Z,18.82
2019-05-05T16:42:43.992Z,18.97
2019-05-05T16:45:18.984Z,18.68
2019-05-05T16:47:51.723Z,18.01
2019-05-05T16:50:25.522Z,17.32
2019-05-05T16:53:03.961Z,17.71
2019-05-05T16:55:38.365Z,18.79
2019-05-05T16:58:13.778Z,18.29
2019-05-05T17:00:47.509Z,19.40
2019-05-05T17:03:20.173Z,19.41
2019-05-05T17:05:54.568Z,19.70
2019-05-05T17:08:27.877Z,18.96
2019-05-05T17:11:03.659Z,18.54
2019-05-05T17:13:40.717Z,18.39
2019-05-05T17:16:14.686Z,17.77
2019-05-05T17:18:49.777Z,16.34
2019-05-05T17:21:22.760Z,15.97
2019-05-05T17:23:55.486Z,14.60
2019-05-05T17:26:28.118Z,13.82
2019-05-05T17:29:01.197Z,13.30
2019-05-05T17:31:34.023Z,13.02
2019-05-05T17:34:18.923Z,12.86
2019-05-05T17:36:56.363Z,12.80
2019-05-05T17:39:30.663Z,12.61
2019-05-05T17:42:05.586Z,12.56
2019-05-05T17:44:55.680Z,12.47
2019-05-05T17:47:39.624Z,12.32
2019-05-05T17:50:18.655Z,12.15
2019-05-05T17:53:11.302Z,11.85
2019-05-05T17:55:44.438Z,11.68
2019-05-05T17:58:17.268Z,11.45
2019-05-05T18:00:51.588Z,11.29
2019-05-05T18:03:24.868Z,11.14
2019-05-05T18:06:09.348Z,10.96
2019-05-05T18:08:46.260Z,10.86
2019-05-05T18:11:18.632Z,10.65
2019-05-05T18:13:59.860Z,10.50
2019-05-05T18:16:33.907Z,10.34
2019-05-05T18:19:06.905Z,10.14
2019-05-05T18:21:40.780Z,9.97
2019-05-05T18:24:13.786Z,9.81
2019-05-05T18:26:46.685Z,9.70
2019-05-05T18:29:20.022Z,9.53
2019-05-05T18:31:53.668Z,9.36
2019-05-05T18:34:27.434Z,9.22
2019-05-05T18:37:00.123Z,9.02
2019-05-05T18:39:34.315Z,8.92
2019-05-05T18:42:20.737Z,8.74
2019-05-05T18:44:55.662Z,8.58
2019-05-05T18:47:28.382Z,8.40
2019-05-05T18:50:00.974Z,8.25
2019-05-05T18:52:34.739Z,8.16
2019-05-05T18:55:09.046Z,8.10
2019-05-05T18:57:43.505Z,7.99
2019-05-05T19:00:18.803Z,7.91
2019-05-05T19:02:54.872Z,7.83
2019-05-05T19:05:47.406Z,7.77
2019-05-05T19:08:21.627Z,7.72
2019-05-05T19:10:54.920Z,7.69
2019-05-05T19:13:27.586Z,7.63
2019-05-05T19:16:00.880Z,7.57
2019-05-05T19:18:34.074Z,7.49
2019-05-05T19:21:11.178Z,7.43
2019-05-05T19:23:44.718Z,7.40
2019-05-05T19:26:17.766Z,7.32
2019-05-05T19:28:50.532Z,7.27
2019-05-05T19:31:23.214Z,7.20
2019-05-05T19:33:56.065Z,7.12
2019-05-05T19:36:29.384Z,7.05
2019-05-05T19:39:04.143Z,6.95
2019-05-05T19:41:37.920Z,6.89
2019-05-05T19:44:10.703Z,6.80
2019-05-05T19:46:47.675Z,6.77
2019-05-05T19:49:24.170Z,6.71
2019-05-05T19:51:57.234Z,6.67
2019-05-05T19:54:29.909Z,6.66
2019-05-05T19:57:03.839Z,6.59
2019-05-05T19:59:37.365Z,6.59
2019-05-05T20:02:09.999Z,6.61
2019-05-05T20:04:44.593Z,6.64
2019-05-05T20:07:17.512Z,6.62
2019-05-05T20:09:50.902Z,6.57
2019-05-05T20:12:25.886Z,6.50
2019-05-05T20:15:03.935Z,6.46
2019-05-05T20:17:38.299Z,6.46
2019-05-05T20:20:13.832Z,6.37
2019-05-05T20:22:46.694Z,6.29
2019-05-05T20:25:24.406Z,6.24
2019-05-05T20:28:03.725Z,6.19
2019-05-05T20:30:40.323Z,6.13
2019-05-05T20:33:18.088Z,6.08
2019-05-05T20:35:53.854Z,6.03
2019-05-05T20:38:28.978Z,6.03
2019-05-05T20:41:14.235Z,6.05
2019-05-05T20:43:48.272Z,6.06
2019-05-05T20:46:23.739Z,6.12
2019-05-05T20:48:58.277Z,6.09
2019-05-05T20:51:38.631Z,6.16
2019-05-05T20:54:11.380Z,6.16
2019-05-05T20:56:44.533Z,6.17
2019-05-05T20:59:28.141Z,6.19
2019-05-05T21:01:55.548Z,6.11
2019-05-05T21:04:28.223Z,6.01
2019-05-05T21:07:00.905Z,5.90
2019-05-05T21:09:34.651Z,5.82
2019-05-05T21:12:07.592Z,5.78
2019-05-05T21:14:40.890Z,5.76
2019-05-05T21:17:13.794Z,5.76
2019-05-05T21:19:46.561Z,5.77
2019-05-05T21:22:29.801Z,5.68
2019-05-05T21:25:02.474Z,5.56
2019-05-05T21:27:35.241Z,5.52
2019-05-05T21:30:08.842Z,5.48
2019-05-05T21:32:43.386Z,5.46
2019-05-05T21:35:16.050Z,5.35
2019-05-05T21:37:48.860Z,5.30
2019-05-05T21:40:24.862Z,5.28
2019-05-05T21:42:58.174Z,5.18
2019-05-05T21:45:30.857Z,5.14
2019-05-05T21:48:04.251Z,5.11
2019-05-05T21:50:54.140Z,5.05
2019-05-05T21:53:28.601Z,5.02
2019-05-05T21:56:18.741Z,4.95
2019-05-05T21:58:53.574Z,4.99
2019-05-05T22:01:27.577Z,4.97
2019-05-05T22:04:00.780Z,4.92
2019-05-05T22:06:34.056Z,4.90
2019-05-05T22:09:08.690Z,4.90
2019-05-05T22:11:43.464Z,4.84
2019-05-05T22:14:15.745Z,4.83
2019-05-05T22:16:49.506Z,4.87
2019-05-05T22:19:24.021Z,4.93
2019-05-05T22:21:58.447Z,4.86
2019-05-05T22:24:31.126Z,4.80
2019-05-05T22:27:04.701Z,4.69
2019-05-05T22:29:37.714Z,4.59
2019-05-05T22:32:10.388Z,4.52
2019-05-05T22:34:44.402Z,4.50
2019-05-05T22:37:17.284Z,4.45
2019-05-05T22:39:51.093Z,4.41
2019-05-05T22:42:24.627Z,4.37
2019-05-05T22:44:57.775Z,4.39
2019-05-05T22:47:30.458Z,4.42
2019-05-05T22:50:05.182Z,4.42
2019-05-05T22:52:37.885Z,4.40
2019-05-05T22:55:10.853Z,4.39
2019-05-05T22:57:45.191Z,4.43
2019-05-05T23:00:26.571Z,4.49
2019-05-05T23:03:13.668Z,4.61
2019-05-05T23:05:50.380Z,4.70
2019-05-05T23:08:24.296Z,4.76
2019-05-05T23:10:57.131Z,4.92
2019-05-05T23:13:30.005Z,4.97
2019-05-05T23:16:04.540Z,5.08
2019-05-05T23:18:37.521Z,5.23
2019-05-05T23:21:21.817Z,5.41
2019-05-05T23:24:03.703Z,5.51
2019-05-05T23:26:44.283Z,5.60
2019-05-05T23:29:17.020Z,5.61
2019-05-05T23:31:49.631Z,5.58
2019-05-05T23:34:24.125Z,5.58
2019-05-05T23:36:56.628Z,5.50
2019-05-05T23:39:29.513Z,5.44
2019-05-05T23:42:04.045Z,5.44
2019-05-05T23:44:36.570Z,5.40
2019-05-05T23:47:09.239Z,5.42
2019-05-05T23:49:43.937Z,5.27
2019-05-05T23:52:17.215Z,5.07
2019-05-05T23:54:49.850Z,4.91
2019-05-05T23:57:24.132Z,4.76
2019-05-05T23:59:56.780Z,4.71
